createdAt,value
2022-09-18T00:01:14.617Z,11.80
2022-09-18T00:03:42.297Z,11.90
2022-09-18T00:06:18.553Z,12.10
2022-09-18T00:08:46.041Z,12.10
2022-09-18T00:11:15.268Z,12.00
2022-09-18T00:13:43.076Z,12.00
2022-09-18T00:16:12.859Z,12.00
2022-09-18T00:18:39.948Z,11.80
2022-09-18T00:21:13.004Z,11.70
2022-09-18T00:23:40.544Z,11.80
2022-09-18T00:26:09.388Z,11.80
2022-09-18T00:28:36.590Z,11.80
2022-09-18T00:31:13.230Z,11.80
2022-09-18T00:33:40.311Z,11.70
2022-09-18T00:36:13.842Z,11.70
2022-09-18T00:38:40.681Z,11.60
2022-09-18T00:41:12.967Z,11.90
2022-09-18T00:43:39.711Z,11.80
2022-09-18T00:46:14.675Z,11.70
2022-09-18T00:48:57.624Z,11.70
2022-09-18T00:51:25.805Z,11.60
2022-09-18T00:54:01.352Z,11.60
2022-09-18T00:56:28.278Z,11.50
2022-09-18T00:58:55.550Z,11.60
2022-09-18T01:01:22.367Z,11.80
2022-09-18T01:03:49.109Z,11.70
2022-09-18T01:06:28.001Z,11.60
2022-09-18T01:08:54.676Z,11.50
2022-09-18T01:11:42.913Z,11.70
2022-09-18T01:14:20.417Z,11.50
2022-09-18T01:17:15.470Z,11.50
2022-09-18T01:20:30.958Z,11.50
2022-09-18T01:23:27.442Z,11.60
2022-09-18T01:25:57.225Z,11.60
2022-09-18T01:28:35.971Z,11.60
2022-09-18T01:31:09.337Z,11.80
2022-09-18T01:33:43.230Z,11.70
2022-09-18T01:36:15.311Z,11.70
2022-09-18T01:38:49.332Z,11.70
2022-09-18T01:41:21.777Z,11.50
2022-09-18T01:43:54.149Z,11.40
2022-09-18T01:46:23.152Z,11.40
2022-09-18T01:49:08.273Z,11.40
2022-09-18T01:51:44.536Z,11.30
2022-09-18T01:54:18.516Z,11.10
2022-09-18T01:57:04.554Z,11.20
2022-09-18T01:59:42.758Z,11.00
2022-09-18T02:02:33.032Z,11.00
2022-09-18T02:05:02.768Z,11.00
2022-09-18T02:08:01.746Z,11.20
2022-09-18T02:10:31.892Z,11.10
2022-09-18T02:13:02.722Z,9.90
2022-09-18T02:15:35.223Z,11.10
2022-09-18T02:18:08.392Z,11.10
2022-09-18T02:20:37.828Z,11.40
2022-09-18T02:23:07.604Z,11.40
2022-09-18T02:25:54.505Z,11.40
2022-09-18T02:28:24.067Z,11.20
2022-09-18T02:30:50.842Z,11.20
2022-09-18T02:33:27.037Z,11.10
2022-09-18T02:36:20.416Z,11.20
2022-09-18T02:38:52.970Z,11.20
2022-09-18T02:41:34.680Z,11.30
2022-09-18T02:48:05.231Z,11.10
2022-09-18T02:50:40.344Z,11.20
2022-09-18T02:53:20.405Z,12.10
2022-09-18T02:56:09.025Z,11.20
2022-09-18T02:58:44.391Z,11.30
2022-09-18T03:01:13.234Z,11.40
2022-09-18T03:03:40.218Z,11.40
2022-09-18T03:06:07.728Z,11.20
2022-09-18T03:08:35.567Z,11.10
2022-09-18T03:11:02.301Z,11.30
2022-09-18T03:13:29.009Z,11.20
2022-09-18T03:15:56.294Z,11.30
2022-09-18T03:18:23.682Z,11.20
2022-09-18T03:20:50.589Z,11.50
2022-09-18T03:23:17.511Z,11.50
2022-09-18T03:25:44.295Z,11.40
2022-09-18T03:28:11.106Z,11.40
2022-09-18T03:30:37.976Z,11.40
2022-09-18T03:33:04.835Z,11.50
2022-09-18T03:35:32.366Z,11.50
2022-09-18T03:37:59.093Z,11.70
2022-09-18T03:40:26.041Z,11.60
2022-09-18T03:42:53.199Z,11.70
2022-09-18T03:45:19.917Z,11.80
2022-09-18T03:51:34.124Z,12.00
2022-09-18T03:54:01.264Z,11.80
2022-09-18T03:56:28.064Z,11.70
2022-09-18T03:58:54.935Z,11.50
2022-09-18T04:01:21.719Z,11.20
2022-09-18T04:03:49.319Z,11.20
2022-09-18T04:06:16.224Z,11.30
2022-09-18T04:08:42.981Z,11.20
2022-09-18T04:11:09.730Z,11.20
2022-09-18T04:13:36.491Z,11.00
2022-09-18T04:16:03.441Z,10.80
2022-09-18T04:18:31.044Z,10.80
2022-09-18T04:20:58.011Z,10.80
2022-09-18T04:23:24.946Z,10.80
2022-09-18T04:25:51.823Z,10.70
2022-09-18T04:28:18.660Z,10.90
2022-09-18T04:30:46.858Z,10.90
2022-09-18T04:33:15.970Z,11.00
2022-09-18T04:35:43.120Z,11.00
2022-09-18T04:38:09.975Z,10.90
2022-09-18T04:40:36.798Z,11.00
2022-09-18T04:43:03.651Z,11.00
2022-09-18T04:45:30.412Z,11.10
2022-09-18T04:47:57.090Z,11.10
2022-09-18T04:50:24.501Z,11.10
2022-09-18T04:52:51.274Z,11.10
2022-09-18T04:55:18.097Z,11.10
2022-09-18T04:57:44.994Z,11.30
2022-09-18T05:00:12.308Z,11.20
2022-09-18T05:02:39.101Z,11.20
2022-09-18T05:05:06.185Z,11.30
2022-09-18T05:07:33.005Z,11.20
2022-09-18T05:10:01.052Z,11.00
2022-09-18T05:12:28.162Z,10.90
2022-09-18T05:14:54.889Z,11.00
2022-09-18T05:17:21.802Z,11.00
2022-09-18T05:19:48.644Z,10.90
2022-09-18T05:22:15.360Z,10.90
2022-09-18T05:24:42.043Z,11.00
2022-09-18T05:27:08.990Z,11.00
2022-09-18T05:29:35.858Z,11.00
2022-09-18T05:32:02.733Z,11.10
2022-09-18T05:34:29.448Z,10.90
2022-09-18T05:36:56.240Z,11.00
2022-09-18T05:39:23.012Z,11.10
2022-09-18T05:41:51.096Z,11.10
2022-09-18T05:44:18.394Z,11.30
2022-09-18T05:46:47.497Z,11.50
2022-09-18T05:49:14.679Z,11.50
2022-09-18T05:51:41.459Z,11.60
2022-09-18T05:54:08.155Z,11.70
2022-09-18T05:56:34.910Z,11.60
2022-09-18T05:59:01.806Z,11.50
2022-09-18T06:01:30.702Z,11.50
2022-09-18T06:03:57.507Z,11.50
2022-09-18T06:06:24.252Z,11.30
2022-09-18T06:08:51.015Z,11.40
2022-09-18T06:11:17.763Z,11.20
2022-09-18T06:13:44.573Z,11.10
2022-09-18T06:16:11.543Z,11.10
2022-09-18T06:18:38.273Z,11.30
2022-09-18T06:21:05.244Z,11.20
2022-09-18T06:23:32.044Z,11.40
2022-09-18T06:26:00.552Z,11.40
2022-09-18T06:28:28.126Z,11.50
2022-09-18T06:30:55.110Z,11.40
2022-09-18T06:33:21.825Z,11.30
2022-09-18T06:35:49.287Z,11.40
2022-09-18T06:38:16.988Z,11.30
2022-09-18T06:40:51.641Z,11.40
2022-09-18T06:43:19.298Z,11.60
2022-09-18T06:45:53.986Z,11.60
2022-09-18T06:48:21.355Z,11.60
2022-09-18T06:50:56.441Z,11.70
2022-09-18T06:53:23.923Z,11.70
2022-09-18T06:55:51.169Z,11.50
2022-09-18T06:58:19.435Z,13.00
2022-09-18T07:00:46.665Z,11.50
2022-09-18T07:03:13.435Z,11.50
2022-09-18T07:05:42.631Z,11.70
2022-09-18T07:08:09.835Z,11.90
2022-09-18T07:10:36.904Z,11.90
2022-09-18T07:13:04.237Z,11.70
2022-09-18T07:15:31.864Z,11.90
2022-09-18T07:18:00.157Z,12.20
2022-09-18T07:20:28.194Z,12.30
2022-09-18T07:22:57.221Z,12.30
2022-09-18T07:25:25.262Z,10.90
2022-09-18T07:27:52.448Z,12.40
2022-09-18T07:30:20.071Z,12.60
2022-09-18T07:32:46.884Z,12.50
2022-09-18T07:35:13.864Z,12.50
2022-09-18T07:37:40.610Z,12.70
2022-09-18T07:40:09.236Z,12.90
2022-09-18T07:42:36.148Z,13.00
2022-09-18T07:45:03.635Z,12.80
2022-09-18T07:47:30.408Z,13.00
2022-09-18T07:49:57.189Z,13.10
2022-09-18T07:52:24.096Z,13.10
2022-09-18T07:54:51.605Z,13.50
2022-09-18T07:57:18.484Z,13.70
2022-09-18T07:59:53.085Z,13.70
2022-09-18T08:02:20.280Z,13.70
2022-09-18T08:04:47.223Z,13.70
2022-09-18T08:07:14.088Z,13.70
2022-09-18T08:09:41.859Z,13.80
2022-09-18T08:12:08.622Z,14.00
2022-09-18T08:14:35.373Z,13.90
2022-09-18T08:17:04.106Z,14.10
2022-09-18T08:19:31.217Z,14.10
2022-09-18T08:21:58.220Z,14.40
2022-09-18T08:24:25.011Z,14.50
2022-09-18T08:26:51.837Z,14.80
2022-09-18T08:29:21.678Z,15.00
2022-09-18T08:31:48.650Z,15.20
2022-09-18T08:34:17.716Z,15.00
2022-09-18T08:36:44.550Z,15.30
2022-09-18T08:39:11.635Z,15.20
2022-09-18T08:42:03.067Z,15.40
2022-09-18T08:44:36.893Z,15.20
2022-09-18T08:47:17.009Z,15.10
2022-09-18T08:49:57.784Z,15.10
2022-09-18T08:52:29.043Z,15.20
2022-09-18T08:55:23.316Z,15.00
2022-09-18T08:57:59.153Z,15.10
2022-09-18T09:00:34.910Z,15.30
2022-09-18T09:03:16.342Z,15.20
2022-09-18T09:05:53.228Z,15.30
2022-09-18T09:08:31.976Z,15.60
2022-09-18T09:11:27.170Z,15.90
2022-09-18T09:14:34.304Z,16.00
2022-09-18T09:17:24.763Z,15.90
2022-09-18T09:20:02.853Z,15.60
2022-09-18T09:22:37.796Z,15.80
2022-09-18T09:25:20.548Z,15.60
2022-09-18T09:28:18.136Z,15.60
2022-09-18T09:30:49.041Z,15.70
2022-09-18T09:33:31.219Z,16.00
2022-09-18T09:36:15.353Z,16.10
2022-09-18T09:38:54.250Z,16.10
2022-09-18T09:41:37.535Z,16.00
2022-09-18T09:44:23.942Z,16.00
2022-09-18T09:47:11.888Z,16.10
2022-09-18T09:49:47.801Z,16.30
2022-09-18T09:52:27.676Z,16.60
2022-09-18T09:55:05.115Z,16.90
2022-09-18T09:57:41.450Z,15.40
2022-09-18T10:00:20.549Z,16.70
2022-09-18T10:03:02.276Z,16.60
2022-09-18T10:05:42.756Z,16.60
2022-09-18T10:08:33.360Z,16.80
2022-09-18T10:11:02.358Z,17.00
2022-09-18T10:13:54.813Z,16.80
2022-09-18T10:16:43.444Z,16.70
2022-09-18T10:19:15.610Z,16.50
2022-09-18T10:21:43.230Z,16.80
2022-09-18T10:24:22.802Z,17.00
2022-09-18T10:26:54.403Z,16.70
2022-09-18T10:29:21.575Z,16.50
2022-09-18T10:31:56.990Z,16.30
2022-09-18T10:34:45.923Z,16.50
2022-09-18T10:37:29.406Z,16.20
2022-09-18T10:39:59.756Z,16.80
2022-09-18T10:42:28.947Z,16.90
2022-09-18T10:45:01.601Z,16.70
2022-09-18T10:47:35.196Z,16.70
2022-09-18T10:50:22.623Z,16.70
2022-09-18T10:52:50.176Z,16.60
2022-09-18T10:55:26.628Z,16.70
2022-09-18T10:58:16.096Z,17.20
2022-09-18T11:01:00.082Z,17.00
2022-09-18T11:03:49.780Z,17.10
2022-09-18T11:06:23.787Z,17.50
2022-09-18T11:08:53.361Z,17.80
2022-09-18T11:11:22.018Z,18.00
2022-09-18T11:14:02.223Z,18.20
2022-09-18T11:16:33.543Z,18.30
2022-09-18T11:19:25.042Z,17.70
2022-09-18T11:21:56.179Z,17.50
2022-09-18T11:24:31.112Z,17.20
2022-09-18T11:27:00.775Z,17.10
2022-09-18T11:29:34.572Z,17.00
2022-09-18T11:32:05.038Z,17.20
2022-09-18T11:34:49.088Z,17.30
2022-09-18T11:37:45.813Z,17.20
2022-09-18T11:40:23.240Z,17.40
2022-09-18T11:42:52.744Z,17.60
2022-09-18T11:45:35.598Z,18.00
2022-09-18T11:48:15.334Z,17.80
2022-09-18T11:50:42.247Z,18.10
2022-09-18T11:53:32.253Z,17.90
2022-09-18T11:56:12.608Z,17.70
2022-09-18T11:58:55.804Z,18.20
2022-09-18T12:01:33.093Z,18.10
2022-09-18T12:04:24.329Z,18.00
2022-09-18T12:07:01.382Z,17.40
2022-09-18T12:09:35.897Z,17.30
2022-09-18T12:12:19.517Z,17.40
2022-09-18T12:15:15.433Z,17.40
2022-09-18T12:17:56.680Z,16.80
2022-09-18T12:20:26.601Z,17.80
2022-09-18T12:22:59.146Z,18.20
2022-09-18T12:26:02.306Z,19.00
2022-09-18T12:28:53.595Z,18.90
2022-09-18T12:31:37.105Z,18.40
2022-09-18T12:34:12.718Z,18.70
2022-09-18T12:36:48.044Z,18.70
2022-09-18T12:39:56.675Z,18.00
2022-09-18T12:42:39.259Z,18.20
2022-09-18T12:45:21.092Z,18.40
2022-09-18T12:47:56.813Z,18.50
2022-09-18T12:50:48.148Z,18.50
2022-09-18T12:53:42.867Z,18.50
2022-09-18T12:56:22.533Z,18.60
2022-09-18T12:59:07.385Z,18.80
2022-09-18T13:01:50.675Z,18.50
2022-09-18T13:04:38.363Z,18.50
2022-09-18T13:07:11.593Z,18.20
2022-09-18T13:09:54.426Z,18.50
2022-09-18T13:12:30.190Z,18.50
2022-09-18T13:15:06.520Z,18.40
2022-09-18T13:17:40.520Z,18.10
2022-09-18T13:20:20.427Z,18.10
2022-09-18T13:22:53.202Z,18.00
2022-09-18T13:25:37.254Z,17.70
2022-09-18T13:28:08.151Z,17.80
2022-09-18T13:30:36.602Z,17.80
2022-09-18T13:33:03.780Z,17.80
2022-09-18T13:35:39.598Z,17.60
2022-09-18T13:38:13.896Z,17.50
2022-09-18T13:41:01.031Z,17.50
2022-09-18T13:43:27.826Z,18.20
2022-09-18T13:45:56.659Z,17.50
2022-09-18T13:48:41.826Z,17.40
2022-09-18T13:51:22.057Z,17.20
2022-09-18T13:54:17.582Z,17.00
2022-09-18T13:57:10.347Z,16.90
2022-09-18T14:03:27.687Z,17.80
2022-09-18T14:05:55.118Z,18.10
2022-09-18T14:08:22.466Z,18.90
2022-09-18T14:11:11.433Z,19.20
2022-09-18T14:13:42.787Z,19.40
2022-09-18T14:16:23.848Z,19.00
2022-09-18T14:19:40.543Z,19.60
2022-09-18T14:22:28.318Z,19.90
2022-09-18T14:24:57.961Z,19.70
2022-09-18T14:27:42.836Z,19.30
2022-09-18T14:30:22.732Z,19.40
2022-09-18T14:33:16.437Z,19.00
2022-09-18T14:35:57.518Z,18.70
2022-09-18T14:38:33.584Z,18.60
2022-09-18T14:41:18.867Z,18.40
2022-09-18T14:43:55.730Z,18.10
2022-09-18T14:46:24.767Z,18.40
2022-09-18T14:48:51.893Z,18.30
2022-09-18T14:51:25.151Z,17.90
2022-09-18T14:53:54.059Z,17.70
2022-09-18T14:56:29.447Z,17.90
2022-09-18T14:58:59.051Z,18.20
2022-09-18T15:01:29.550Z,18.20
2022-09-18T15:03:59.652Z,18.20
2022-09-18T15:06:33.323Z,18.50
2022-09-18T15:09:02.040Z,18.50
2022-09-18T15:11:37.813Z,18.30
2022-09-18T15:14:29.635Z,18.30
2022-09-18T15:17:05.608Z,18.50
2022-09-18T15:19:33.948Z,18.60
2022-09-18T15:22:01.107Z,18.60
2022-09-18T15:24:28.559Z,18.50
2022-09-18T15:27:01.367Z,18.70
2022-09-18T15:29:42.227Z,18.80
2022-09-18T15:32:14.738Z,18.50
2022-09-18T15:34:47.252Z,18.40
2022-09-18T15:37:23.572Z,18.30
2022-09-18T15:40:24.538Z,18.60
2022-09-18T15:42:59.742Z,18.60
2022-09-18T15:45:29.173Z,18.50
2022-09-18T15:47:58.835Z,18.40
2022-09-18T15:50:35.871Z,18.40
2022-09-18T15:53:11.697Z,18.70
2022-09-18T15:55:54.971Z,18.70
2022-09-18T15:58:44.396Z,18.80
2022-09-18T16:01:21.300Z,18.50
2022-09-18T16:03:56.687Z,18.30
2022-09-18T16:06:27.432Z,18.30
2022-09-18T16:08:56.638Z,18.20
2022-09-18T16:11:44.990Z,18.00
2022-09-18T16:14:42.341Z,18.10
2022-09-18T16:17:46.279Z,17.80
2022-09-18T16:20:28.483Z,17.90
2022-09-18T16:23:03.165Z,18.00
2022-09-18T16:25:30.583Z,18.10
2022-09-18T16:27:58.981Z,17.80
2022-09-18T16:30:27.890Z,18.10
2022-09-18T16:33:11.864Z,18.50
2022-09-18T16:35:38.679Z,18.60
2022-09-18T16:38:05.412Z,18.60
2022-09-18T16:40:32.478Z,18.60
2022-09-18T16:42:59.304Z,18.50
2022-09-18T16:45:29.483Z,18.30
2022-09-18T16:48:00.442Z,18.50
2022-09-18T16:50:27.643Z,18.60
2022-09-18T16:52:57.512Z,18.70
2022-09-18T16:55:26.904Z,18.60
2022-09-18T16:57:55.148Z,18.60
2022-09-18T17:00:22.011Z,18.40
2022-09-18T17:02:50.606Z,18.70
2022-09-18T17:05:17.860Z,18.30
2022-09-18T17:07:44.622Z,18.30
2022-09-18T17:10:12.621Z,18.20
2022-09-18T17:12:40.969Z,18.20
2022-09-18T17:15:10.186Z,18.50
2022-09-18T17:17:37.035Z,18.40
2022-09-18T17:20:05.204Z,18.50
2022-09-18T17:22:32.210Z,18.50
2022-09-18T17:24:59.682Z,18.30
2022-09-18T17:27:26.682Z,18.50
2022-09-18T17:29:53.437Z,18.60
2022-09-18T17:32:20.196Z,18.60
2022-09-18T17:34:47.074Z,18.70
2022-09-18T17:37:14.069Z,18.80
2022-09-18T17:39:41.566Z,19.00
2022-09-18T17:42:08.423Z,18.80
2022-09-18T17:44:35.411Z,18.70
2022-09-18T17:47:02.319Z,18.30
2022-09-18T17:49:32.420Z,18.30
2022-09-18T17:51:59.891Z,18.30
2022-09-18T17:54:27.855Z,18.20
2022-09-18T17:56:55.830Z,18.00
2022-09-18T17:59:22.980Z,18.00
2022-09-18T18:01:50.603Z,18.00
2022-09-18T18:04:17.924Z,18.00
2022-09-18T18:06:48.812Z,17.90
2022-09-18T18:09:16.693Z,17.90
2022-09-18T18:11:46.078Z,17.90
2022-09-18T18:14:13.513Z,18.00
2022-09-18T18:16:41.437Z,18.00
2022-09-18T18:19:12.206Z,17.80
2022-09-18T18:21:42.575Z,17.60
2022-09-18T18:24:15.314Z,17.10
2022-09-18T18:26:43.319Z,16.90
2022-09-18T18:29:12.606Z,16.70
2022-09-18T18:31:42.111Z,16.70
2022-09-18T18:34:10.828Z,16.60
2022-09-18T18:36:40.114Z,16.40
2022-09-18T18:39:12.090Z,16.40
2022-09-18T18:41:39.465Z,16.40
2022-09-18T18:44:07.051Z,16.20
2022-09-18T18:46:36.470Z,16.80
2022-09-18T18:49:09.846Z,16.60
2022-09-18T18:51:43.612Z,16.70
2022-09-18T18:54:11.557Z,16.70
2022-09-18T18:56:38.983Z,16.80
2022-09-18T18:59:12.553Z,16.80
2022-09-18T19:01:41.273Z,16.90
2022-09-18T19:04:11.154Z,16.90
2022-09-18T19:06:40.300Z,17.00
2022-09-18T19:09:30.637Z,16.90
2022-09-18T19:11:57.702Z,16.90
2022-09-18T19:14:27.962Z,17.00
2022-09-18T19:16:55.278Z,17.10
2022-09-18T19:19:24.656Z,17.00
2022-09-18T19:21:52.844Z,16.70
2022-09-18T19:24:20.846Z,15.70
2022-09-18T19:26:48.378Z,16.40
2022-09-18T19:29:17.145Z,16.50
2022-09-18T19:31:45.565Z,16.50
2022-09-18T19:34:15.323Z,16.80
2022-09-18T19:36:44.593Z,16.70
2022-09-18T19:39:11.645Z,16.80
2022-09-18T19:41:41.676Z,16.80
2022-09-18T19:44:36.269Z,16.80
2022-09-18T19:47:14.975Z,16.80
2022-09-18T19:49:41.845Z,16.90
2022-09-18T19:52:22.651Z,17.00
2022-09-18T19:54:51.395Z,17.20
2022-09-18T19:57:19.493Z,17.30
2022-09-18T19:59:54.305Z,17.40
2022-09-18T20:02:22.497Z,17.40
2022-09-18T20:04:49.522Z,17.30
2022-09-18T20:07:16.323Z,17.30
2022-09-18T20:09:43.139Z,17.10
2022-09-18T20:12:10.495Z,17.10
2022-09-18T20:14:37.268Z,17.20
2022-09-18T20:17:04.239Z,17.30
2022-09-18T20:19:31.130Z,17.20
2022-09-18T20:22:02.170Z,17.20
2022-09-18T20:24:32.834Z,17.00
2022-09-18T20:27:01.106Z,16.80
2022-09-18T20:29:29.327Z,17.60
2022-09-18T20:31:58.009Z,16.00
2022-09-18T20:34:25.749Z,15.80
2022-09-18T20:36:54.441Z,15.70
2022-09-18T20:39:21.693Z,15.40
2022-09-18T20:41:48.598Z,15.20
2022-09-18T20:44:15.537Z,16.00
2022-09-18T20:46:43.066Z,15.00
2022-09-18T20:49:13.791Z,15.10
2022-09-18T20:51:40.592Z,15.00
2022-09-18T20:54:08.114Z,15.10
2022-09-18T20:56:42.028Z,15.10
2022-09-18T20:59:10.324Z,15.30
2022-09-18T21:01:41.575Z,15.10
2022-09-18T21:04:10.164Z,15.10
2022-09-18T21:06:37.142Z,15.30
2022-09-18T21:09:08.650Z,15.30
2022-09-18T21:11:39.481Z,15.50
2022-09-18T21:14:08.393Z,15.10
2022-09-18T21:16:39.321Z,15.00
2022-09-18T21:19:06.606Z,15.10
2022-09-18T21:21:34.683Z,15.20
2022-09-18T21:24:02.288Z,15.20
2022-09-18T21:26:38.160Z,15.40
2022-09-18T21:29:17.886Z,15.50
2022-09-18T21:31:48.128Z,15.60
2022-09-18T21:34:23.497Z,15.60
2022-09-18T21:36:52.951Z,15.50
2022-09-18T21:39:19.871Z,15.60
2022-09-18T21:41:48.673Z,16.70
2022-09-18T21:44:17.875Z,15.40
2022-09-18T21:46:47.774Z,15.20
2022-09-18T21:49:19.252Z,13.90
2022-09-18T21:51:49.349Z,16.40
2022-09-18T21:54:19.168Z,15.40
2022-09-18T21:56:51.873Z,15.30
2022-09-18T21:59:24.086Z,15.20
2022-09-18T22:01:55.179Z,15.00
2022-09-18T22:04:28.685Z,14.90
2022-09-18T22:06:57.665Z,15.00
2022-09-18T22:09:27.362Z,14.80
2022-09-18T22:11:54.844Z,15.00
2022-09-18T22:14:24.427Z,14.90
2022-09-18T22:16:53.691Z,15.00
2022-09-18T22:19:21.048Z,15.10
2022-09-18T22:21:50.115Z,15.30
2022-09-18T22:24:22.273Z,15.40
2022-09-18T22:26:55.492Z,15.60
2022-09-18T22:29:33.359Z,15.70
2022-09-18T22:32:00.746Z,15.70
2022-09-18T22:34:29.986Z,15.80
2022-09-18T22:36:58.335Z,15.80
2022-09-18T22:39:25.337Z,15.90
2022-09-18T22:41:52.726Z,16.00
2022-09-18T22:44:22.783Z,16.10
2022-09-18T22:46:52.429Z,16.20
2022-09-18T22:49:20.595Z,16.10
2022-09-18T22:51:48.034Z,16.10
2022-09-18T22:54:16.754Z,16.00
2022-09-18T22:56:49.639Z,16.00
2022-09-18T22:59:18.133Z,16.00
2022-09-18T23:01:49.221Z,15.90
2022-09-18T23:04:18.716Z,16.00
2022-09-18T23:06:47.832Z,16.00
2022-09-18T23:09:16.464Z,16.00
2022-09-18T23:11:45.378Z,15.90
2022-09-18T23:14:17.027Z,15.90
2022-09-18T23:16:44.360Z,15.90
2022-09-18T23:19:22.946Z,15.90
2022-09-18T23:21:50.208Z,15.90
2022-09-18T23:24:17.571Z,15.90
2022-09-18T23:26:47.301Z,15.90
2022-09-18T23:29:22.495Z,15.90
2022-09-18T23:31:53.087Z,15.80
2022-09-18T23:34:22.550Z,15.80
2022-09-18T23:36:52.554Z,15.90
2022-09-18T23:39:25.423Z,15.90
2022-09-18T23:41:52.537Z,15.80
2022-09-18T23:44:21.301Z,15.80
2022-09-18T23:46:48.830Z,15.80
2022-09-18T23:49:16.930Z,15.90
2022-09-18T23:51:48.440Z,15.90
2022-09-18T23:54:17.967Z,15.80
2022-09-18T23:56:45.196Z,15.90
2022-09-18T23:59:13.513Z,15.90
